sensor_id;sensor_type;location;lat;lon;timestamp;P1;durP1;ratioP1;P2;durP2;ratioP2
79399;SDS011;68856;45.586;10.264;2023-05-07T00:00:59;9.63;;;8.30;;
79399;SDS011;68856;45.586;10.264;2023-05-07T00:03:25;10.43;;;8.43;;
79399;SDS011;68856;45.586;10.264;2023-05-07T00:05:52;10.00;;;8.38;;
79399;SDS011;68856;45.586;10.264;2023-05-07T00:08:18;9.60;;;8.07;;
79399;SDS011;68856;45.586;10.264;2023-05-07T00:10:45;11.75;;;8.18;;
79399;SDS011;68856;45.586;10.264;2023-05-07T00:13:12;10.43;;;8.45;;
79399;SDS011;68856;45.586;10.264;2023-05-07T00:15:38;10.05;;;8.60;;
79399;SDS011;68856;45.586;10.264;2023-05-07T00:18:04;11.23;;;9.20;;
79399;SDS011;68856;45.586;10.264;2023-05-07T00:20:31;9.80;;;8.38;;
79399;SDS011;68856;45.586;10.264;2023-05-07T00:22:57;11.88;;;7.88;;
79399;SDS011;68856;45.586;10.264;2023-05-07T00:25:23;12.38;;;9.30;;
79399;SDS011;68856;45.586;10.264;2023-05-07T00:27:50;9.80;;;8.25;;
79399;SDS011;68856;45.586;10.264;2023-05-07T00:30:16;9.90;;;8.38;;
79399;SDS011;68856;45.586;10.264;2023-05-07T00:32:42;9.88;;;8.27;;
79399;SDS011;68856;45.586;10.264;2023-05-07T00:35:10;11.73;;;9.30;;
79399;SDS011;68856;45.586;10.264;2023-05-07T00:37:36;10.27;;;9.13;;
79399;SDS011;68856;45.586;10.264;2023-05-07T00:40:03;11.13;;;8.38;;
79399;SDS011;68856;45.586;10.264;2023-05-07T00:42:32;13.70;;;9.23;;
79399;SDS011;68856;45.586;10.264;2023-05-07T00:44:58;12.65;;;9.48;;
79399;SDS011;68856;45.586;10.264;2023-05-07T00:47:24;12.35;;;9.82;;
79399;SDS011;68856;45.586;10.264;2023-05-07T00:49:51;12.55;;;9.65;;
79399;SDS011;68856;45.586;10.264;2023-05-07T00:52:17;11.35;;;9.40;;
79399;SDS011;68856;45.586;10.264;2023-05-07T00:54:46;13.68;;;8.80;;
79399;SDS011;68856;45.586;10.264;2023-05-07T00:57:13;10.65;;;8.43;;
79399;SDS011;68856;45.586;10.264;2023-05-07T00:59:39;13.88;;;8.68;;
79399;SDS011;68856;45.586;10.264;2023-05-07T01:02:06;11.05;;;8.70;;
79399;SDS011;68856;45.586;10.264;2023-05-07T01:04:32;13.43;;;10.48;;
79399;SDS011;68856;45.586;10.264;2023-05-07T01:06:59;12.25;;;8.75;;
79399;SDS011;68856;45.586;10.264;2023-05-07T01:09:26;11.35;;;9.13;;
79399;SDS011;68856;45.586;10.264;2023-05-07T01:11:54;10.38;;;9.15;;
79399;SDS011;68856;45.586;10.264;2023-05-07T01:14:22;12.65;;;9.75;;
79399;SDS011;68856;45.586;10.264;2023-05-07T01:16:49;14.27;;;9.85;;
79399;SDS011;68856;45.586;10.264;2023-05-07T01:19:17;10.80;;;9.52;;
79399;SDS011;68856;45.586;10.264;2023-05-07T01:21:47;13.50;;;9.00;;
79399;SDS011;68856;45.586;10.264;2023-05-07T01:24:14;11.55;;;9.32;;
79399;SDS011;68856;45.586;10.264;2023-05-07T01:26:42;11.55;;;9.43;;
79399;SDS011;68856;45.586;10.264;2023-05-07T01:29:09;12.55;;;10.15;;
79399;SDS011;68856;45.586;10.264;2023-05-07T01:31:36;10.73;;;8.63;;
79399;SDS011;68856;45.586;10.264;2023-05-07T01:34:05;14.07;;;9.07;;
79399;SDS011;68856;45.586;10.264;2023-05-07T01:36:34;11.40;;;8.90;;
79399;SDS011;68856;45.586;10.264;2023-05-07T01:39:04;11.27;;;9.23;;
79399;SDS011;68856;45.586;10.264;2023-05-07T01:41:31;11.60;;;8.73;;
79399;SDS011;68856;45.586;10.264;2023-05-07T01:43:57;11.30;;;8.60;;
79399;SDS011;68856;45.586;10.264;2023-05-07T01:46:24;14.25;;;9.60;;
79399;SDS011;68856;45.586;10.264;2023-05-07T01:48:51;11.25;;;9.18;;
79399;SDS011;68856;45.586;10.264;2023-05-07T01:51:17;13.85;;;8.45;;
79399;SDS011;68856;45.586;10.264;2023-05-07T01:53:45;8.93;;;8.02;;
79399;SDS011;68856;45.586;10.264;2023-05-07T01:56:15;13.52;;;9.00;;
79399;SDS011;68856;45.586;10.264;2023-05-07T01:58:44;10.68;;;8.82;;
79399;SDS011;68856;45.586;10.264;2023-05-07T02:01:11;12.55;;;10.10;;
79399;SDS011;68856;45.586;10.264;2023-05-07T02:03:38;16.00;;;9.55;;
79399;SDS011;68856;45.586;10.264;2023-05-07T02:06:04;10.88;;;9.18;;
79399;SDS011;68856;45.586;10.264;2023-05-07T02:08:31;10.43;;;9.10;;
79399;SDS011;68856;45.586;10.264;2023-05-07T02:10:57;9.43;;;8.43;;
79399;SDS011;68856;45.586;10.264;2023-05-07T02:13:23;11.10;;;9.13;;
79399;SDS011;68856;45.586;10.264;2023-05-07T02:15:50;10.80;;;9.30;;
79399;SDS011;68856;45.586;10.264;2023-05-07T02:18:16;11.68;;;9.07;;
79399;SDS011;68856;45.586;10.264;2023-05-07T02:20:43;11.02;;;8.90;;
79399;SDS011;68856;45.586;10.264;2023-05-07T02:23:09;11.88;;;9.88;;
79399;SDS011;68856;45.586;10.264;2023-05-07T02:25:35;13.63;;;11.00;;
79399;SDS011;68856;45.586;10.264;2023-05-07T02:28:01;11.90;;;9.60;;
79399;SDS011;68856;45.586;10.264;2023-05-07T02:30:28;12.68;;;10.40;;
79399;SDS011;68856;45.586;10.264;2023-05-07T02:32:54;12.27;;;9.93;;
79399;SDS011;68856;45.586;10.264;2023-05-07T02:35:20;12.60;;;10.20;;
79399;SDS011;68856;45.586;10.264;2023-05-07T02:37:46;10.82;;;9.30;;
79399;SDS011;68856;45.586;10.264;2023-05-07T02:40:13;12.52;;;9.65;;
79399;SDS011;68856;45.586;10.264;2023-05-07T02:42:39;14.55;;;10.20;;
79399;SDS011;68856;45.586;10.264;2023-05-07T02:45:05;10.35;;;9.23;;
79399;SDS011;68856;45.586;10.264;2023-05-07T02:47:32;10.93;;;8.98;;
79399;SDS011;68856;45.586;10.264;2023-05-07T02:49:58;13.98;;;9.80;;
79399;SDS011;68856;45.586;10.264;2023-05-07T02:52:24;14.15;;;9.15;;
79399;SDS011;68856;45.586;10.264;2023-05-07T02:54:51;11.88;;;10.45;;
79399;SDS011;68856;45.586;10.264;2023-05-07T02:57:17;11.18;;;9.45;;
79399;SDS011;68856;45.586;10.264;2023-05-07T02:59:43;12.93;;;10.23;;
79399;SDS011;68856;45.586;10.264;2023-05-07T03:02:10;12.10;;;10.75;;
79399;SDS011;68856;45.586;10.264;2023-05-07T03:04:36;12.10;;;10.10;;
79399;SDS011;68856;45.586;10.264;2023-05-07T03:07:04;13.25;;;9.40;;
79399;SDS011;68856;45.586;10.264;2023-05-07T03:09:30;11.85;;;9.52;;
79399;SDS011;68856;45.586;10.264;2023-05-07T03:11:57;11.70;;;9.57;;
79399;SDS011;68856;45.586;10.264;2023-05-07T03:14:23;12.23;;;10.27;;
79399;SDS011;68856;45.586;10.264;2023-05-07T03:16:49;12.32;;;9.73;;
79399;SDS011;68856;45.586;10.264;2023-05-07T03:19:16;11.00;;;9.30;;
79399;SDS011;68856;45.586;10.264;2023-05-07T03:21:42;10.55;;;8.90;;
79399;SDS011;68856;45.586;10.264;2023-05-07T03:24:08;10.55;;;8.68;;
79399;SDS011;68856;45.586;10.264;2023-05-07T03:26:34;18.10;;;10.38;;
79399;SDS011;68856;45.586;10.264;2023-05-07T03:29:01;13.52;;;10.52;;
79399;SDS011;68856;45.586;10.264;2023-05-07T03:31:27;15.05;;;10.80;;
79399;SDS011;68856;45.586;10.264;2023-05-07T03:33:54;12.52;;;10.55;;
79399;SDS011;68856;45.586;10.264;2023-05-07T03:36:22;12.82;;;10.07;;
79399;SDS011;68856;45.586;10.264;2023-05-07T03:38:49;10.57;;;9.32;;
79399;SDS011;68856;45.586;10.264;2023-05-07T03:41:15;10.77;;;9.10;;
79399;SDS011;68856;45.586;10.264;2023-05-07T03:43:42;8.75;;;7.80;;
79399;SDS011;68856;45.586;10.264;2023-05-07T03:46:08;10.80;;;8.63;;
79399;SDS011;68856;45.586;10.264;2023-05-07T03:48:35;8.85;;;7.95;;
79399;SDS011;68856;45.586;10.264;2023-05-07T03:51:01;10.43;;;8.63;;
79399;SDS011;68856;45.586;10.264;2023-05-07T03:53:27;10.38;;;7.45;;
79399;SDS011;68856;45.586;10.264;2023-05-07T03:55:54;9.18;;;7.38;;
79399;SDS011;68856;45.586;10.264;2023-05-07T03:58:20;9.60;;;7.50;;
79399;SDS011;68856;45.586;10.264;2023-05-07T04:00:46;8.82;;;6.90;;
79399;SDS011;68856;45.586;10.264;2023-05-07T04:03:13;9.63;;;6.90;;
79399;SDS011;68856;45.586;10.264;2023-05-07T04:05:40;8.32;;;6.80;;
79399;SDS011;68856;45.586;10.264;2023-05-07T04:08:06;8.30;;;6.78;;
79399;SDS011;68856;45.586;10.264;2023-05-07T04:10:33;7.85;;;6.43;;
79399;SDS011;68856;45.586;10.264;2023-05-07T04:12:59;7.18;;;6.15;;
79399;SDS011;68856;45.586;10.264;2023-05-07T04:15:25;6.50;;;5.47;;
79399;SDS011;68856;45.586;10.264;2023-05-07T04:17:51;6.80;;;5.20;;
79399;SDS011;68856;45.586;10.264;2023-05-07T04:20:17;6.93;;;5.88;;
79399;SDS011;68856;45.586;10.264;2023-05-07T04:22:44;5.68;;;5.03;;
79399;SDS011;68856;45.586;10.264;2023-05-07T04:25:10;6.78;;;5.22;;
79399;SDS011;68856;45.586;10.264;2023-05-07T04:27:37;7.80;;;5.45;;
79399;SDS011;68856;45.586;10.264;2023-05-07T04:30:03;8.60;;;7.15;;
79399;SDS011;68856;45.586;10.264;2023-05-07T04:32:30;8.27;;;7.07;;
79399;SDS011;68856;45.586;10.264;2023-05-07T04:34:56;7.20;;;6.30;;
79399;SDS011;68856;45.586;10.264;2023-05-07T04:37:22;7.28;;;6.20;;
79399;SDS011;68856;45.586;10.264;2023-05-07T04:39:50;8.65;;;7.45;;
79399;SDS011;68856;45.586;10.264;2023-05-07T04:42:17;12.25;;;7.72;;
79399;SDS011;68856;45.586;10.264;2023-05-07T04:44:44;5.70;;;4.00;;
79399;SDS011;68856;45.586;10.264;2023-05-07T04:47:10;5.03;;;4.32;;
79399;SDS011;68856;45.586;10.264;2023-05-07T04:49:40;6.70;;;5.18;;
79399;SDS011;68856;45.586;10.264;2023-05-07T04:52:06;9.38;;;5.68;;
79399;SDS011;68856;45.586;10.264;2023-05-07T04:54:32;5.82;;;5.18;;
79399;SDS011;68856;45.586;10.264;2023-05-07T04:56:59;7.07;;;5.85;;
79399;SDS011;68856;45.586;10.264;2023-05-07T04:59:25;6.40;;;5.80;;
79399;SDS011;68856;45.586;10.264;2023-05-07T05:01:51;6.25;;;5.35;;
79399;SDS011;68856;45.586;10.264;2023-05-07T05:04:17;7.03;;;5.38;;
79399;SDS011;68856;45.586;10.264;2023-05-07T05:06:43;5.25;;;4.75;;
79399;SDS011;68856;45.586;10.264;2023-05-07T05:09:10;5.38;;;4.22;;
79399;SDS011;68856;45.586;10.264;2023-05-07T05:11:36;7.00;;;4.30;;
79399;SDS011;68856;45.586;10.264;2023-05-07T05:14:02;4.22;;;3.83;;
79399;SDS011;68856;45.586;10.264;2023-05-07T05:16:28;4.68;;;4.28;;
79399;SDS011;68856;45.586;10.264;2023-05-07T05:18:54;6.07;;;3.95;;
79399;SDS011;68856;45.586;10.264;2023-05-07T05:21:21;5.28;;;4.50;;
79399;SDS011;68856;45.586;10.264;2023-05-07T05:23:47;4.68;;;4.13;;
79399;SDS011;68856;45.586;10.264;2023-05-07T05:26:13;5.47;;;4.68;;
79399;SDS011;68856;45.586;10.264;2023-05-07T05:28:39;7.85;;;5.30;;
79399;SDS011;68856;45.586;10.264;2023-05-07T05:31:06;6.03;;;5.43;;
79399;SDS011;68856;45.586;10.264;2023-05-07T05:33:32;4.78;;;4.28;;
79399;SDS011;68856;45.586;10.264;2023-05-07T05:35:58;4.95;;;4.00;;
79399;SDS011;68856;45.586;10.264;2023-05-07T05:38:24;4.63;;;3.88;;
79399;SDS011;68856;45.586;10.264;2023-05-07T05:40:51;5.57;;;4.30;;
79399;SDS011;68856;45.586;10.264;2023-05-07T05:43:17;5.50;;;4.53;;
79399;SDS011;68856;45.586;10.264;2023-05-07T05:45:43;6.20;;;5.35;;
79399;SDS011;68856;45.586;10.264;2023-05-07T05:48:09;5.28;;;4.78;;
79399;SDS011;68856;45.586;10.264;2023-05-07T05:50:36;5.70;;;4.47;;
79399;SDS011;68856;45.586;10.264;2023-05-07T05:53:03;4.97;;;4.47;;
79399;SDS011;68856;45.586;10.264;2023-05-07T05:55:29;4.72;;;4.05;;
79399;SDS011;68856;45.586;10.264;2023-05-07T05:57:57;8.48;;;4.90;;
79399;SDS011;68856;45.586;10.264;2023-05-07T06:00:24;4.97;;;4.47;;
79399;SDS011;68856;45.586;10.264;2023-05-07T06:02:51;5.07;;;4.03;;
79399;SDS011;68856;45.586;10.264;2023-05-07T06:05:18;4.00;;;3.70;;
79399;SDS011;68856;45.586;10.264;2023-05-07T06:07:44;5.22;;;4.32;;
79399;SDS011;68856;45.586;10.264;2023-05-07T06:10:10;6.28;;;4.28;;
79399;SDS011;68856;45.586;10.264;2023-05-07T06:12:36;4.60;;;4.20;;
79399;SDS011;68856;45.586;10.264;2023-05-07T06:15:03;6.30;;;4.43;;
79399;SDS011;68856;45.586;10.264;2023-05-07T06:17:30;4.80;;;4.22;;
79399;SDS011;68856;45.586;10.264;2023-05-07T06:19:56;7.07;;;4.93;;
79399;SDS011;68856;45.586;10.264;2023-05-07T06:22:22;5.20;;;4.70;;
79399;SDS011;68856;45.586;10.264;2023-05-07T06:24:48;4.93;;;4.38;;
79399;SDS011;68856;45.586;10.264;2023-05-07T06:27:14;15.02;;;5.78;;
79399;SDS011;68856;45.586;10.264;2023-05-07T06:29:41;5.35;;;4.50;;
79399;SDS011;68856;45.586;10.264;2023-05-07T06:32:10;5.50;;;4.45;;
79399;SDS011;68856;45.586;10.264;2023-05-07T06:34:38;4.68;;;3.83;;
79399;SDS011;68856;45.586;10.264;2023-05-07T06:37:05;3.90;;;3.60;;
79399;SDS011;68856;45.586;10.264;2023-05-07T06:39:32;3.80;;;3.50;;
79399;SDS011;68856;45.586;10.264;2023-05-07T06:41:59;3.53;;;3.22;;
79399;SDS011;68856;45.586;10.264;2023-05-07T06:44:29;5.45;;;3.88;;
79399;SDS011;68856;45.586;10.264;2023-05-07T06:46:56;3.50;;;3.10;;
79399;SDS011;68856;45.586;10.264;2023-05-07T06:49:22;3.45;;;3.15;;
79399;SDS011;68856;45.586;10.264;2023-05-07T06:51:49;3.72;;;3.40;;
79399;SDS011;68856;45.586;10.264;2023-05-07T06:54:15;2.80;;;2.60;;
79399;SDS011;68856;45.586;10.264;2023-05-07T06:56:42;3.83;;;3.17;;
79399;SDS011;68856;45.586;10.264;2023-05-07T06:59:08;3.30;;;3.00;;
79399;SDS011;68856;45.586;10.264;2023-05-07T07:01:34;3.88;;;3.13;;
79399;SDS011;68856;45.586;10.264;2023-05-07T07:04:01;3.20;;;2.90;;
79399;SDS011;68856;45.586;10.264;2023-05-07T08:38:42;3.90;;;3.47;;
79399;SDS011;68856;45.586;10.264;2023-05-07T08:41:10;3.25;;;2.80;;
79399;SDS011;68856;45.586;10.264;2023-05-07T08:43:36;3.33;;;3.08;;
79399;SDS011;68856;45.586;10.264;2023-05-07T08:46:05;2.70;;;2.50;;
79399;SDS011;68856;45.586;10.264;2023-05-07T08:48:33;5.63;;;2.88;;
79399;SDS011;68856;45.586;10.264;2023-05-07T08:51:00;3.67;;;3.05;;
79399;SDS011;68856;45.586;10.264;2023-05-07T08:53:26;3.17;;;2.92;;
79399;SDS011;68856;45.586;10.264;2023-05-07T08:55:53;4.00;;;3.60;;
79399;SDS011;68856;45.586;10.264;2023-05-07T08:58:19;3.63;;;3.33;;
79399;SDS011;68856;45.586;10.264;2023-05-07T09:00:46;4.13;;;3.72;;
79399;SDS011;68856;45.586;10.264;2023-05-07T09:03:13;3.63;;;3.30;;
79399;SDS011;68856;45.586;10.264;2023-05-07T09:05:39;4.30;;;3.90;;
79399;SDS011;68856;45.586;10.264;2023-05-07T09:08:06;6.72;;;4.30;;
79399;SDS011;68856;45.586;10.264;2023-05-07T09:10:33;8.63;;;4.90;;
79399;SDS011;68856;45.586;10.264;2023-05-07T09:12:59;6.63;;;4.80;;
79399;SDS011;68856;45.586;10.264;2023-05-07T09:15:26;5.32;;;4.10;;
79399;SDS011;68856;45.586;10.264;2023-05-07T09:17:53;4.97;;;4.53;;
79399;SDS011;68856;45.586;10.264;2023-05-07T09:20:24;11.73;;;7.53;;
79399;SDS011;68856;45.586;10.264;2023-05-07T09:22:50;9.73;;;8.13;;
79399;SDS011;68856;45.586;10.264;2023-05-07T09:25:18;12.27;;;8.95;;
79399;SDS011;68856;45.586;10.264;2023-05-07T09:27:57;10.88;;;8.85;;
79399;SDS011;68856;45.586;10.264;2023-05-07T09:30:27;10.05;;;7.53;;
79399;SDS011;68856;45.586;10.264;2023-05-07T09:32:54;11.45;;;9.18;;
79399;SDS011;68856;45.586;10.264;2023-05-07T09:35:21;11.27;;;9.07;;
79399;SDS011;68856;45.586;10.264;2023-05-07T09:37:51;10.25;;;8.32;;
79399;SDS011;68856;45.586;10.264;2023-05-07T09:40:23;13.45;;;9.77;;
79399;SDS011;68856;45.586;10.264;2023-05-07T09:42:51;12.20;;;9.95;;
79399;SDS011;68856;45.586;10.264;2023-05-07T09:45:27;13.27;;;10.05;;
79399;SDS011;68856;45.586;10.264;2023-05-07T09:47:57;11.52;;;9.90;;
79399;SDS011;68856;45.586;10.264;2023-05-07T09:50:29;11.45;;;10.25;;
79399;SDS011;68856;45.586;10.264;2023-05-07T09:53:01;13.57;;;10.90;;
79399;SDS011;68856;45.586;10.264;2023-05-07T09:55:28;12.90;;;9.77;;
79399;SDS011;68856;45.586;10.264;2023-05-07T09:57:55;12.98;;;10.75;;
79399;SDS011;68856;45.586;10.264;2023-05-07T10:00:22;10.73;;;9.38;;
79399;SDS011;68856;45.586;10.264;2023-05-07T10:02:49;10.50;;;9.35;;
79399;SDS011;68856;45.586;10.264;2023-05-07T10:05:23;13.90;;;9.65;;
79399;SDS011;68856;45.586;10.264;2023-05-07T10:07:50;14.02;;;10.02;;
79399;SDS011;68856;45.586;10.264;2023-05-07T10:10:17;16.45;;;11.30;;
79399;SDS011;68856;45.586;10.264;2023-05-07T10:12:44;13.93;;;9.63;;
79399;SDS011;68856;45.586;10.264;2023-05-07T10:15:11;10.60;;;9.27;;
79399;SDS011;68856;45.586;10.264;2023-05-07T10:17:39;12.05;;;9.38;;
79399;SDS011;68856;45.586;10.264;2023-05-07T10:20:06;12.00;;;9.48;;
79399;SDS011;68856;45.586;10.264;2023-05-07T10:22:43;13.13;;;9.88;;
79399;SDS011;68856;45.586;10.264;2023-05-07T10:25:14;10.57;;;9.25;;
79399;SDS011;68856;45.586;10.264;2023-05-07T10:27:51;13.25;;;9.85;;
79399;SDS011;68856;45.586;10.264;2023-05-07T10:32:59;11.65;;;9.60;;
79399;SDS011;68856;45.586;10.264;2023-05-07T10:35:31;11.65;;;10.45;;
79399;SDS011;68856;45.586;10.264;2023-05-07T10:38:06;11.50;;;10.25;;
79399;SDS011;68856;45.586;10.264;2023-05-07T10:40:33;11.48;;;8.57;;
79399;SDS011;68856;45.586;10.264;2023-05-07T10:43:01;11.35;;;8.73;;
79399;SDS011;68856;45.586;10.264;2023-05-07T10:45:30;9.93;;;8.93;;
79399;SDS011;68856;45.586;10.264;2023-05-07T10:48:06;10.60;;;8.73;;
79399;SDS011;68856;45.586;10.264;2023-05-07T10:50:43;9.82;;;8.23;;
79399;SDS011;68856;45.586;10.264;2023-05-07T10:56:24;10.25;;;8.23;;
79399;SDS011;68856;45.586;10.264;2023-05-07T10:58:44;9.27;;;8.25;;
79399;SDS011;68856;45.586;10.264;2023-05-07T11:01:10;9.85;;;7.63;;
79399;SDS011;68856;45.586;10.264;2023-05-07T11:04:12;8.77;;;7.75;;
79399;SDS011;68856;45.586;10.264;2023-05-07T11:06:40;9.30;;;7.65;;
79399;SDS011;68856;45.586;10.264;2023-05-07T11:09:07;11.68;;;8.52;;
79399;SDS011;68856;45.586;10.264;2023-05-07T11:11:46;12.15;;;8.38;;
79399;SDS011;68856;45.586;10.264;2023-05-07T11:14:13;10.68;;;8.25;;
79399;SDS011;68856;45.586;10.264;2023-05-07T11:17:03;9.75;;;8.10;;
79399;SDS011;68856;45.586;10.264;2023-05-07T11:19:48;10.97;;;8.87;;
79399;SDS011;68856;45.586;10.264;2023-05-07T11:25:00;9.70;;;8.60;;
79399;SDS011;68856;45.586;10.264;2023-05-07T11:27:30;9.25;;;8.05;;
79399;SDS011;68856;45.586;10.264;2023-05-07T11:29:57;9.32;;;8.23;;
79399;SDS011;68856;45.586;10.264;2023-05-07T11:32:26;10.40;;;8.90;;
79399;SDS011;68856;45.586;10.264;2023-05-07T11:34:54;10.50;;;8.30;;
79399;SDS011;68856;45.586;10.264;2023-05-07T11:37:22;11.18;;;9.32;;
79399;SDS011;68856;45.586;10.264;2023-05-07T11:39:50;10.75;;;9.20;;
79399;SDS011;68856;45.586;10.264;2023-05-07T11:42:30;13.50;;;9.65;;
79399;SDS011;68856;45.586;10.264;2023-05-07T11:44:58;12.13;;;9.18;;
79399;SDS011;68856;45.586;10.264;2023-05-07T11:47:24;10.27;;;8.13;;
79399;SDS011;68856;45.586;10.264;2023-05-07T11:49:52;10.88;;;9.68;;
79399;SDS011;68856;45.586;10.264;2023-05-07T11:52:20;10.65;;;9.15;;
79399;SDS011;68856;45.586;10.264;2023-05-07T11:54:54;9.82;;;8.43;;
79399;SDS011;68856;45.586;10.264;2023-05-07T11:57:22;9.15;;;7.57;;
79399;SDS011;68856;45.586;10.264;2023-05-07T11:59:56;10.32;;;8.15;;
79399;SDS011;68856;45.586;10.264;2023-05-07T12:02:23;10.18;;;8.05;;
79399;SDS011;68856;45.586;10.264;2023-05-07T12:04:51;10.35;;;8.02;;
79399;SDS011;68856;45.586;10.264;2023-05-07T12:07:17;9.82;;;7.38;;
79399;SDS011;68856;45.586;10.264;2023-05-07T12:09:44;10.90;;;7.38;;
79399;SDS011;68856;45.586;10.264;2023-05-07T12:12:12;6.57;;;5.88;;
79399;SDS011;68856;45.586;10.264;2023-05-07T12:14:43;11.43;;;7.90;;
79399;SDS011;68856;45.586;10.264;2023-05-07T12:17:11;7.60;;;6.65;;
79399;SDS011;68856;45.586;10.264;2023-05-07T12:19:39;7.22;;;6.15;;
79399;SDS011;68856;45.586;10.264;2023-05-07T12:22:08;8.63;;;6.57;;
79399;SDS011;68856;45.586;10.264;2023-05-07T12:24:44;6.18;;;5.57;;
79399;SDS011;68856;45.586;10.264;2023-05-07T12:27:13;8.52;;;6.43;;
79399;SDS011;68856;45.586;10.264;2023-05-07T12:29:43;6.57;;;5.90;;
79399;SDS011;68856;45.586;10.264;2023-05-07T12:32:15;7.43;;;6.68;;
79399;SDS011;68856;45.586;10.264;2023-05-07T12:34:42;6.72;;;6.03;;
79399;SDS011;68856;45.586;10.264;2023-05-07T12:37:09;8.43;;;5.75;;
79399;SDS011;68856;45.586;10.264;2023-05-07T12:39:35;7.03;;;6.20;;
79399;SDS011;68856;45.586;10.264;2023-05-07T12:42:02;6.70;;;6.00;;
79399;SDS011;68856;45.586;10.264;2023-05-07T12:44:31;10.27;;;6.45;;
79399;SDS011;68856;45.586;10.264;2023-05-07T12:47:01;7.38;;;6.22;;
79399;SDS011;68856;45.586;10.264;2023-05-07T12:49:27;7.07;;;5.63;;
79399;SDS011;68856;45.586;10.264;2023-05-07T12:51:54;7.00;;;5.85;;
79399;SDS011;68856;45.586;10.264;2023-05-07T12:54:30;6.53;;;5.93;;
79399;SDS011;68856;45.586;10.264;2023-05-07T12:57:01;8.25;;;6.03;;
79399;SDS011;68856;45.586;10.264;2023-05-07T12:59:36;7.35;;;6.07;;
79399;SDS011;68856;45.586;10.264;2023-05-07T13:02:05;7.95;;;5.57;;
79399;SDS011;68856;45.586;10.264;2023-05-07T13:04:31;5.40;;;4.90;;
79399;SDS011;68856;45.586;10.264;2023-05-07T13:06:59;8.68;;;5.20;;
79399;SDS011;68856;45.586;10.264;2023-05-07T13:09:25;6.35;;;5.68;;
79399;SDS011;68856;45.586;10.264;2023-05-07T13:11:54;6.72;;;5.25;;
79399;SDS011;68856;45.586;10.264;2023-05-07T13:14:20;5.82;;;5.22;;
79399;SDS011;68856;45.586;10.264;2023-05-07T13:16:47;5.28;;;4.70;;
79399;SDS011;68856;45.586;10.264;2023-05-07T13:19:14;5.25;;;4.75;;
79399;SDS011;68856;45.586;10.264;2023-05-07T13:21:40;7.22;;;5.65;;
79399;SDS011;68856;45.586;10.264;2023-05-07T13:24:07;7.25;;;5.82;;
79399;SDS011;68856;45.586;10.264;2023-05-07T13:26:33;6.45;;;5.68;;
79399;SDS011;68856;45.586;10.264;2023-05-07T13:28:59;7.50;;;5.70;;
79399;SDS011;68856;45.586;10.264;2023-05-07T13:31:26;6.32;;;5.60;;
79399;SDS011;68856;45.586;10.264;2023-05-07T13:33:52;5.65;;;5.13;;
79399;SDS011;68856;45.586;10.264;2023-05-07T13:36:18;8.90;;;5.03;;
79399;SDS011;68856;45.586;10.264;2023-05-07T13:38:45;5.82;;;5.32;;
79399;SDS011;68856;45.586;10.264;2023-05-07T13:41:11;5.95;;;4.97;;
79399;SDS011;68856;45.586;10.264;2023-05-07T13:43:38;4.80;;;4.40;;
79399;SDS011;68856;45.586;10.264;2023-05-07T13:46:04;5.93;;;5.25;;
79399;SDS011;68856;45.586;10.264;2023-05-07T13:48:30;5.50;;;4.90;;
79399;SDS011;68856;45.586;10.264;2023-05-07T13:50:57;7.30;;;4.88;;
79399;SDS011;68856;45.586;10.264;2023-05-07T13:53:23;7.03;;;4.50;;
79399;SDS011;68856;45.586;10.264;2023-05-07T13:55:49;6.55;;;4.90;;
79399;SDS011;68856;45.586;10.264;2023-05-07T13:58:15;5.93;;;5.18;;
79399;SDS011;68856;45.586;10.264;2023-05-07T14:00:42;5.25;;;4.75;;
79399;SDS011;68856;45.586;10.264;2023-05-07T14:03:08;4.80;;;4.40;;
79399;SDS011;68856;45.586;10.264;2023-05-07T14:05:35;8.20;;;5.65;;
79399;SDS011;68856;45.586;10.264;2023-05-07T14:08:01;7.22;;;6.43;;
79399;SDS011;68856;45.586;10.264;2023-05-07T14:10:29;5.97;;;4.80;;
79399;SDS011;68856;45.586;10.264;2023-05-07T14:12:56;4.53;;;4.13;;
79399;SDS011;68856;45.586;10.264;2023-05-07T14:15:23;5.50;;;4.72;;
79399;SDS011;68856;45.586;10.264;2023-05-07T14:17:49;8.18;;;4.25;;
79399;SDS011;68856;45.586;10.264;2023-05-07T14:20:15;7.32;;;5.25;;
79399;SDS011;68856;45.586;10.264;2023-05-07T14:22:41;4.38;;;3.97;;
79399;SDS011;68856;45.586;10.264;2023-05-07T14:25:08;4.80;;;4.40;;
79399;SDS011;68856;45.586;10.264;2023-05-07T14:27:34;4.80;;;4.30;;
79399;SDS011;68856;45.586;10.264;2023-05-07T14:30:01;5.15;;;4.65;;
79399;SDS011;68856;45.586;10.264;2023-05-07T14:32:27;4.43;;;3.95;;
79399;SDS011;68856;45.586;10.264;2023-05-07T14:34:53;4.38;;;3.97;;
79399;SDS011;68856;45.586;10.264;2023-05-07T14:37:20;4.03;;;3.60;;
79399;SDS011;68856;45.586;10.264;2023-05-07T14:39:46;4.65;;;4.18;;
79399;SDS011;68856;45.586;10.264;2023-05-07T14:42:12;6.43;;;5.35;;
79399;SDS011;68856;45.586;10.264;2023-05-07T14:44:38;5.05;;;4.18;;
79399;SDS011;68856;45.586;10.264;2023-05-07T14:47:06;4.95;;;4.55;;
79399;SDS011;68856;45.586;10.264;2023-05-07T14:49:33;4.95;;;3.90;;
79399;SDS011;68856;45.586;10.264;2023-05-07T14:51:59;5.13;;;4.60;;
79399;SDS011;68856;45.586;10.264;2023-05-07T14:54:26;4.70;;;4.30;;
79399;SDS011;68856;45.586;10.264;2023-05-07T14:56:52;5.10;;;4.57;;
79399;SDS011;68856;45.586;10.264;2023-05-07T14:59:19;5.68;;;4.30;;
79399;SDS011;68856;45.586;10.264;2023-05-07T15:01:49;4.43;;;4.03;;
79399;SDS011;68856;45.586;10.264;2023-05-07T15:04:15;5.43;;;4.93;;
79399;SDS011;68856;45.586;10.264;2023-05-07T15:06:42;6.00;;;5.40;;
79399;SDS011;68856;45.586;10.264;2023-05-07T15:09:08;5.32;;;4.82;;
79399;SDS011;68856;45.586;10.264;2023-05-07T15:11:34;4.57;;;4.18;;
79399;SDS011;68856;45.586;10.264;2023-05-07T15:14:00;4.40;;;3.60;;
79399;SDS011;68856;45.586;10.264;2023-05-07T15:16:27;5.25;;;4.85;;
79399;SDS011;68856;45.586;10.264;2023-05-07T15:18:53;5.00;;;4.50;;
79399;SDS011;68856;45.586;10.264;2023-05-07T15:21:19;5.05;;;4.18;;
79399;SDS011;68856;45.586;10.264;2023-05-07T15:23:46;5.75;;;5.25;;
79399;SDS011;68856;45.586;10.264;2023-05-07T15:26:12;4.95;;;4.55;;
79399;SDS011;68856;45.586;10.264;2023-05-07T15:28:39;4.80;;;4.38;;
79399;SDS011;68856;45.586;10.264;2023-05-07T15:31:05;3.72;;;3.42;;
79399;SDS011;68856;45.586;10.264;2023-05-07T15:33:32;4.50;;;4.10;;
79399;SDS011;68856;45.586;10.264;2023-05-07T15:35:58;4.38;;;3.97;;
79399;SDS011;68856;45.586;10.264;2023-05-07T15:38:25;4.70;;;4.20;;
79399;SDS011;68856;45.586;10.264;2023-05-07T15:40:52;4.78;;;4.28;;
79399;SDS011;68856;45.586;10.264;2023-05-07T15:43:18;3.95;;;3.65;;
79399;SDS011;68856;45.586;10.264;2023-05-07T15:45:44;5.57;;;4.97;;
79399;SDS011;68856;45.586;10.264;2023-05-07T15:48:11;5.40;;;4.95;;
79399;SDS011;68856;45.586;10.264;2023-05-07T15:50:37;5.13;;;4.40;;
79399;SDS011;68856;45.586;10.264;2023-05-07T15:53:03;5.45;;;4.95;;
79399;SDS011;68856;45.586;10.264;2023-05-07T15:55:30;5.63;;;4.93;;
79399;SDS011;68856;45.586;10.264;2023-05-07T15:57:57;5.82;;;5.05;;
79399;SDS011;68856;45.586;10.264;2023-05-07T16:00:26;6.05;;;5.07;;
79399;SDS011;68856;45.586;10.264;2023-05-07T16:02:53;4.43;;;4.03;;
79399;SDS011;68856;45.586;10.264;2023-05-07T16:05:19;5.45;;;4.95;;
79399;SDS011;68856;45.586;10.264;2023-05-07T16:07:46;5.43;;;4.63;;
79399;SDS011;68856;45.586;10.264;2023-05-07T16:10:12;6.15;;;4.55;;